Time;durP1;ratioP1;P1;durP2;ratioP2;P2;SDS_P1;SDS_P2;PMS_P1;PMS_P2;Temp;Humidity;BMP_temperature;BMP_pressure;BME280_temperature;BME280_humidity;BME280_pressure;Samples;Min_cycle;Max_cycle;Signal;HPM_P1;HPM_P2
2021/08/18 00:01:41;;;;;;;12.48;5.40;;;12.60;99.90;;;;;;4975699;28;20409;-84
2021/08/18 00:04:06;;;;;;;9.60;5.40;;;12.60;99.90;;;;;;4965704;28;20045;-85
2021/08/18 00:06:32;;;;;;;9.23;5.15;;;12.60;99.90;;;;;;4980328;28;20030;-84
2021/08/18 00:08:58;;;;;;;9.25;4.90;;;12.60;99.90;;;;;;4979992;28;20033;-85
2021/08/18 00:11:24;;;;;;;11.90;5.50;;;12.60;99.90;;;;;;4979364;28;20066;-85
2021/08/18 00:13:50;;;;;;;12.38;5.63;;;12.50;99.90;;;;;;4977239;28;20025;-85
2021/08/18 00:16:16;;;;;;;14.40;5.72;;;12.50;99.90;;;;;;4977269;28;20026;-85
2021/08/18 00:18:42;;;;;;;12.13;5.25;;;12.50;99.90;;;;;;4960235;28;20030;-85
2021/08/18 00:21:08;;;;;;;11.55;5.20;;;12.60;99.90;;;;;;4966871;28;20480;-85
2021/08/18 00:23:34;;;;;;;7.97;4.65;;;12.50;99.90;;;;;;4992778;28;20038;-85
2021/08/18 00:26:00;;;;;;;12.00;4.90;;;12.60;99.90;;;;;;4980119;28;20034;-85
2021/08/18 00:28:25;;;;;;;10.88;5.28;;;12.50;99.90;;;;;;4980079;28;20034;-85
2021/08/18 00:30:51;;;;;;;13.60;6.25;;;12.60;99.90;;;;;;4979725;28;20021;-85
2021/08/18 00:33:17;;;;;;;11.63;5.97;;;12.60;99.90;;;;;;4994816;28;20038;-85
2021/08/18 00:35:43;;;;;;;14.25;6.70;;;12.60;99.90;;;;;;4992297;28;20107;-87
2021/08/18 00:38:09;;;;;;;13.38;5.63;;;12.60;99.90;;;;;;4979239;28;20038;-86
2021/08/18 00:40:35;;;;;;;11.20;5.28;;;12.60;99.90;;;;;;4978169;28;20110;-86
2021/08/18 00:43:01;;;;;;;11.30;6.15;;;12.60;99.90;;;;;;4960343;28;20037;-86
2021/08/18 00:45:27;;;;;;;11.05;5.38;;;12.50;99.90;;;;;;4985061;28;20030;-85
2021/08/18 00:47:54;;;;;;;12.50;4.72;;;12.50;99.90;;;;;;4981553;28;20045;-86
2021/08/18 00:50:26;;;;;;;11.50;5.63;;;12.50;99.90;;;;;;4995858;28;20062;-86
2021/08/18 00:52:54;;;;;;;9.98;5.18;;;12.60;99.90;;;;;;4973806;28;20034;-86
2021/08/18 00:55:22;;;;;;;11.55;5.20;;;12.60;99.90;;;;;;4977284;28;20053;-86
2021/08/18 00:57:49;;;;;;;15.88;5.82;;;12.50;99.90;;;;;;4989569;28;20484;-86
2021/08/18 01:00:17;;;;;;;11.07;5.30;;;12.50;99.90;;;;;;4995163;28;20034;-86
2021/08/18 01:02:46;;;;;;;10.63;5.53;;;12.50;99.90;;;;;;4989318;28;20030;-86
2021/08/18 01:05:14;;;;;;;10.52;5.30;;;12.60;99.90;;;;;;4971995;28;20052;-86
2021/08/18 01:07:40;;;;;;;10.05;5.18;;;12.50;99.90;;;;;;4996392;28;20029;-85
2021/08/18 01:10:12;;;;;;;10.27;4.97;;;12.60;99.90;;;;;;4963436;28;20034;-86
2021/08/18 01:12:41;;;;;;;11.75;4.90;;;12.60;99.90;;;;;;4986275;28;20081;-86
2021/08/18 01:15:14;;;;;;;10.90;5.47;;;12.60;99.90;;;;;;4995588;28;20053;-87
2021/08/18 01:17:44;;;;;;;8.93;4.75;;;12.50;99.90;;;;;;4979852;28;20080;-86
2021/08/18 01:20:14;;;;;;;11.18;5.05;;;12.50;99.90;;;;;;4995166;28;20034;-86
2021/08/18 01:22:41;;;;;;;11.90;5.38;;;12.50;99.90;;;;;;4992067;23;20507;-83
2021/08/18 01:25:08;;;;;;;10.45;5.07;;;12.50;99.90;;;;;;5041509;28;20021;-83
2021/08/18 01:27:35;;;;;;;7.85;4.25;;;12.60;99.90;;;;;;5018441;28;20499;-82
2021/08/18 01:30:02;;;;;;;6.88;4.13;;;12.50;99.90;;;;;;5003417;28;20033;-83
2021/08/18 01:32:28;;;;;;;9.13;3.78;;;12.60;99.90;;;;;;5006988;28;20514;-83
2021/08/18 01:34:53;;;;;;;6.47;3.67;;;12.50;99.90;;;;;;4976589;28;20026;-83
2021/08/18 01:37:19;;;;;;;7.53;3.38;;;12.60;99.90;;;;;;4995198;28;20539;-83
2021/08/18 01:39:45;;;;;;;7.68;3.65;;;12.60;99.90;;;;;;4979174;28;20119;-83
2021/08/18 01:42:11;;;;;;;7.35;3.75;;;12.60;99.90;;;;;;5010726;28;20395;-83
2021/08/18 01:44:37;;;;;;;4.88;3.20;;;12.60;99.90;;;;;;4997389;28;20040;-83
2021/08/18 01:47:03;;;;;;;6.05;3.38;;;12.60;99.90;;;;;;4995344;28;20036;-83
2021/08/18 01:49:28;;;;;;;5.78;3.08;;;12.60;99.90;;;;;;5012621;28;20026;-83
2021/08/18 01:51:58;;;;;;;5.50;3.08;;;12.60;99.90;;;;;;5020680;28;20029;-83
2021/08/18 01:54:23;;;;;;;6.13;3.70;;;12.60;99.90;;;;;;5016621;28;20021;-83
2021/08/18 01:56:50;;;;;;;4.80;2.60;;;12.60;99.90;;;;;;4988793;28;20503;-83
2021/08/18 01:59:16;;;;;;;8.15;3.40;;;12.60;99.90;;;;;;4977588;28;20041;-83
2021/08/18 02:01:42;;;;;;;5.43;3.15;;;12.60;99.90;;;;;;4985324;28;20033;-83
2021/08/18 02:04:08;;;;;;;5.40;2.85;;;12.60;99.90;;;;;;4986543;28;20033;-83
2021/08/18 02:06:35;;;;;;;7.80;3.33;;;12.70;99.90;;;;;;5009496;28;20029;-83
2021/08/18 02:09:01;;;;;;;3.92;2.20;;;12.70;99.90;;;;;;4986657;28;20084;-83
2021/08/18 02:11:27;;;;;;;5.40;2.78;;;12.70;99.90;;;;;;4974395;28;20034;-83
2021/08/18 02:13:53;;;;;;;4.30;2.25;;;12.70;99.90;;;;;;4989145;28;20396;-83
2021/08/18 02:16:19;;;;;;;5.47;2.70;;;12.60;99.90;;;;;;4989036;28;20469;-83
2021/08/18 02:18:45;;;;;;;6.35;3.08;;;12.60;99.90;;;;;;5003336;28;20033;-82
2021/08/18 02:21:10;;;;;;;4.45;2.35;;;12.60;99.90;;;;;;5004309;28;20117;-82
2021/08/18 02:23:36;;;;;;;5.40;2.85;;;12.60;99.90;;;;;;5003931;28;20038;-83
2021/08/18 02:26:02;;;;;;;4.45;2.53;;;12.60;99.90;;;;;;5003744;28;20033;-82
2021/08/18 02:28:28;;;;;;;6.55;2.88;;;12.60;99.90;;;;;;5008031;28;20084;-83
2021/08/18 02:30:53;;;;;;;4.78;2.58;;;12.60;99.90;;;;;;4993977;28;20077;-83
2021/08/18 02:33:24;;;;;;;3.28;2.17;;;12.60;99.90;;;;;;5011480;28;20472;-83
2021/08/18 02:35:50;;;;;;;6.20;3.05;;;12.60;99.90;;;;;;4983579;28;20109;-82
2021/08/18 02:38:16;;;;;;;6.40;3.63;;;12.60;99.90;;;;;;4987945;28;20037;-83
2021/08/18 02:40:42;;;;;;;5.45;2.70;;;12.60;99.90;;;;;;5020018;28;20033;-82
2021/08/18 02:43:08;;;;;;;7.97;3.85;;;12.60;99.90;;;;;;5006030;28;20104;-83
2021/08/18 02:45:34;;;;;;;8.27;4.10;;;12.60;99.90;;;;;;4992632;28;20124;-82
2021/08/18 02:47:59;;;;;;;10.45;4.53;;;12.60;99.90;;;;;;4986093;28;20038;-83
2021/08/18 02:50:27;;;;;;;10.10;4.60;;;12.70;99.90;;;;;;5003097;28;20075;-83
2021/08/18 02:52:53;;;;;;;10.98;4.90;;;12.60;99.90;;;;;;5005380;28;20036;-83
2021/08/18 02:55:19;;;;;;;12.88;5.03;;;12.60;99.90;;;;;;5008624;28;20302;-83
2021/08/18 02:57:45;;;;;;;8.43;4.50;;;12.60;99.90;;;;;;4989993;28;20030;-81
2021/08/18 03:00:11;;;;;;;10.90;4.43;;;12.60;99.90;;;;;;4984498;28;20041;-82
2021/08/18 03:02:37;;;;;;;11.05;5.05;;;12.60;99.90;;;;;;5008039;28;20581;-83
2021/08/18 03:05:04;;;;;;;9.35;4.47;;;12.70;99.90;;;;;;5010873;28;20030;-82
2021/08/18 03:07:30;;;;;;;11.75;4.68;;;12.70;99.90;;;;;;4990552;28;20068;-82
2021/08/18 03:09:55;;;;;;;12.82;6.15;;;12.70;99.90;;;;;;5010335;28;20037;-82
2021/08/18 03:12:21;;;;;;;11.93;4.95;;;12.70;99.90;;;;;;4990265;28;20026;-82
2021/08/18 03:14:47;;;;;;;10.65;4.85;;;12.70;99.90;;;;;;4983707;28;20033;-82
2021/08/18 03:17:13;;;;;;;11.63;5.70;;;12.70;99.90;;;;;;4993618;28;20030;-83
2021/08/18 03:19:39;;;;;;;9.02;4.55;;;12.70;99.90;;;;;;4976933;28;20653;-82
2021/08/18 03:22:05;;;;;;;9.85;4.78;;;12.70;99.90;;;;;;5009070;28;20041;-83
2021/08/18 03:24:31;;;;;;;11.27;5.25;;;12.70;99.90;;;;;;4993760;22;20030;-88
2021/08/18 03:27:00;;;;;;;9.88;4.43;;;12.60;99.90;;;;;;4995222;28;20037;-85
2021/08/18 03:29:26;;;;;;;9.45;5.05;;;12.70;99.90;;;;;;5009712;28;20029;-87
2021/08/18 03:31:52;;;;;;;10.68;4.57;;;12.70;99.90;;;;;;5014962;28;20581;-88
2021/08/18 03:34:18;;;;;;;11.57;5.07;;;12.60;99.90;;;;;;4998929;28;20032;-87
2021/08/18 03:36:43;;;;;;;7.93;4.03;;;12.70;99.90;;;;;;5031402;28;20044;-86
2021/08/18 03:39:09;;;;;;;8.00;4.18;;;12.70;99.90;;;;;;5015757;28;20127;-87
2021/08/18 03:41:35;;;;;;;10.07;4.55;;;12.70;99.90;;;;;;5015750;28;20033;-87
2021/08/18 03:44:01;;;;;;;11.82;4.65;;;12.70;99.90;;;;;;5030722;28;20071;-86
2021/08/18 03:46:27;;;;;;;10.55;5.00;;;12.70;99.90;;;;;;4995252;28;20029;-87
2021/08/18 03:48:53;;;;;;;9.15;4.45;;;12.70;99.90;;;;;;5011901;28;20435;-85
2021/08/18 03:51:18;;;;;;;8.20;4.55;;;12.70;99.90;;;;;;5012338;28;20025;-88
2021/08/18 03:53:44;;;;;;;10.75;4.68;;;12.70;99.90;;;;;;5014044;28;20088;-88
2021/08/18 03:56:10;;;;;;;7.90;4.35;;;12.70;99.90;;;;;;5012434;28;20033;-87
2021/08/18 03:58:36;;;;;;;11.73;4.78;;;12.70;99.90;;;;;;5011740;28;20102;-87
2021/08/18 04:01:01;;;;;;;9.85;4.32;;;12.80;99.90;;;;;;5029711;28;20120;-87
2021/08/18 04:03:27;;;;;;;10.05;4.45;;;12.70;99.90;;;;;;5011781;28;20088;-87
2021/08/18 04:05:53;;;;;;;9.93;4.65;;;12.80;99.90;;;;;;5032114;28;20091;-85
2021/08/18 04:08:22;;;;;;;12.85;5.32;;;12.80;99.90;;;;;;4998522;28;20047;-87
2021/08/18 04:10:47;;;;;;;10.68;4.72;;;12.80;99.90;;;;;;5013950;28;20033;-87
2021/08/18 04:13:13;;;;;;;8.52;4.70;;;12.80;99.90;;;;;;5014415;28;20086;-86
2021/08/18 04:15:40;;;;;;;7.85;4.65;;;12.80;99.90;;;;;;5012948;28;20064;-87
2021/08/18 04:18:08;;;;;;;15.73;4.70;;;12.80;99.90;;;;;;5007726;28;20029;-88
2021/08/18 04:20:34;;;;;;;12.07;5.15;;;12.80;99.90;;;;;;5035376;28;20660;-87
2021/08/18 04:23:01;;;;;;;10.85;5.45;;;12.80;99.90;;;;;;5035634;28;20452;-86
2021/08/18 04:25:27;;;;;;;11.73;4.93;;;12.80;99.90;;;;;;5018218;28;20164;-86
2021/08/18 04:27:53;;;;;;;15.80;5.45;;;12.80;99.90;;;;;;5046105;28;20092;-87
2021/08/18 04:30:20;;;;;;;11.15;5.50;;;12.80;99.90;;;;;;5016032;28;20181;-87
2021/08/18 04:32:46;;;;;;;12.93;5.03;;;12.80;99.90;;;;;;5015357;28;20031;-86
2021/08/18 04:35:13;;;;;;;10.55;5.65;;;12.80;99.90;;;;;;5018033;28;20403;-86
2021/08/18 04:37:39;;;;;;;13.30;6.25;;;12.80;99.90;;;;;;5013612;28;20033;-86
2021/08/18 04:40:08;;;;;;;12.05;5.82;;;12.80;99.90;;;;;;5018470;28;20039;-86
2021/08/18 04:42:36;;;;;;;12.65;5.80;;;12.80;99.90;;;;;;5031638;28;20500;-87
2021/08/18 04:45:03;;;;;;;11.77;5.47;;;12.90;99.90;;;;;;5026836;28;20534;-88
2021/08/18 04:47:29;;;;;;;13.23;5.80;;;12.80;99.90;;;;;;5014906;28;20040;-87
2021/08/18 04:49:55;;;;;;;13.13;6.63;;;12.80;99.90;;;;;;5018362;28;20507;-86
2021/08/18 04:52:21;;;;;;;13.95;6.13;;;12.90;99.90;;;;;;5019106;28;20527;-86
2021/08/18 04:54:46;;;;;;;12.90;6.40;;;12.90;99.90;;;;;;5015069;28;20448;-86
2021/08/18 04:57:12;;;;;;;12.25;6.05;;;12.80;99.90;;;;;;5026044;28;20120;-87
2021/08/18 04:59:38;;;;;;;14.65;6.07;;;12.90;99.90;;;;;;5034666;28;20390;-87
2021/08/18 05:02:04;;;;;;;14.02;6.50;;;12.80;99.90;;;;;;5016591;28;20033;-86
2021/08/18 05:04:30;;;;;;;12.90;6.30;;;12.90;99.90;;;;;;4997713;28;20558;-87
2021/08/18 05:06:56;;;;;;;14.48;6.38;;;12.90;99.90;;;;;;5022515;28;20039;-87
2021/08/18 05:09:22;;;;;;;12.68;6.97;;;12.80;99.90;;;;;;5027344;28;20120;-86
2021/08/18 05:11:47;;;;;;;13.32;6.40;;;12.90;99.90;;;;;;5014445;28;20052;-87
2021/08/18 05:14:13;;;;;;;12.88;6.60;;;12.90;99.90;;;;;;5014955;28;20033;-86
2021/08/18 05:16:39;;;;;;;12.15;6.35;;;12.90;99.90;;;;;;5032639;28;20029;-88
2021/08/18 05:19:05;;;;;;;12.10;6.45;;;12.90;99.90;;;;;;5034566;28;20680;-87
2021/08/18 05:21:30;;;;;;;12.00;6.15;;;12.90;99.90;;;;;;5034354;28;20048;-87
2021/08/18 05:23:56;;;;;;;11.23;5.95;;;13.00;99.90;;;;;;5017963;28;20548;-88
2021/08/18 05:26:22;;;;;;;14.30;6.30;;;13.00;99.90;;;;;;5033576;28;20076;-88
2021/08/18 05:28:48;;;;;;;9.48;5.15;;;13.00;99.90;;;;;;5034592;28;20071;-89
2021/08/18 05:31:13;;;;;;;13.18;5.72;;;13.00;99.90;;;;;;5018593;28;20029;-88
2021/08/18 05:33:43;;;;;;;9.82;5.05;;;13.00;99.90;;;;;;5013245;28;20025;-86
2021/08/18 05:36:09;;;;;;;8.45;4.70;;;13.00;99.90;;;;;;5016475;28;20061;-88
2021/08/18 05:38:34;;;;;;;11.55;5.25;;;13.10;99.90;;;;;;5035495;28;20706;-88
2021/08/18 05:41:00;;;;;;;12.18;5.32;;;13.10;99.90;;;;;;5016685;28;20061;-88
2021/08/18 05:43:26;;;;;;;9.45;4.10;;;13.10;99.90;;;;;;5000214;28;20037;-88
2021/08/18 05:45:51;;;;;;;12.70;5.50;;;13.10;99.90;;;;;;5015945;28;20037;-88
2021/08/18 05:48:22;;;;;;;8.82;5.07;;;13.10;99.90;;;;;;4981805;28;20520;-88
2021/08/18 05:50:48;;;;;;;8.50;4.32;;;13.20;99.90;;;;;;5019751;28;20068;-88
2021/08/18 05:53:18;;;;;;;9.45;4.53;;;13.20;99.90;;;;;;5016949;28;20033;-87
2021/08/18 05:55:45;;;;;;;8.82;4.05;;;13.20;99.90;;;;;;5028856;28;20047;-87
2021/08/18 05:58:12;;;;;;;9.45;4.05;;;13.20;99.90;;;;;;5034610;28;20079;-86
2021/08/18 06:00:38;;;;;;;7.80;3.90;;;13.20;99.90;;;;;;4999030;28;20033;-88
2021/08/18 06:03:03;;;;;;;6.75;3.70;;;13.20;99.90;;;;;;5013611;28;20068;-87
2021/08/18 06:05:30;;;;;;;8.70;4.07;;;13.20;99.90;;;;;;5010802;28;20136;-87
2021/08/18 06:07:56;;;;;;;6.60;3.55;;;13.20;99.90;;;;;;5014234;28;20032;-89
2021/08/18 06:10:22;;;;;;;6.53;3.42;;;13.20;99.90;;;;;;5012824;28;20053;-87
2021/08/18 06:12:48;;;;;;;11.50;4.43;;;13.30;99.90;;;;;;5013567;28;20017;-87
2021/08/18 06:15:14;;;;;;;5.65;3.35;;;13.30;99.90;;;;;;5018286;28;20095;-87
2021/08/18 06:17:40;;;;;;;6.72;3.33;;;13.30;99.90;;;;;;5016314;28;20071;-88
2021/08/18 06:20:07;;;;;;;6.70;3.35;;;13.30;99.90;;;;;;5016967;28;20065;-87
2021/08/18 06:22:33;;;;;;;6.57;3.65;;;13.30;99.90;;;;;;5017449;28;20033;-87
2021/08/18 06:25:02;;;;;;;6.45;3.20;;;13.40;99.90;;;;;;5017655;28;20058;-87
2021/08/18 06:27:30;;;;;;;6.50;3.38;;;13.40;99.90;;;;;;5015814;28;20030;-87
2021/08/18 06:29:56;;;;;;;7.35;2.75;;;13.40;99.90;;;;;;5015986;28;20033;-87
2021/08/18 06:32:22;;;;;;;6.07;3.17;;;13.40;99.90;;;;;;5013772;28;20029;-86
2021/08/18 06:34:49;;;;;;;6.43;3.50;;;13.40;99.90;;;;;;5030163;28;20552;-86
2021/08/18 06:37:14;;;;;;;5.28;3.00;;;13.40;99.90;;;;;;5017103;28;20368;-85
2021/08/18 06:39:40;;;;;;;5.60;2.95;;;13.40;99.90;;;;;;5010468;28;20032;-86
2021/08/18 06:42:07;;;;;;;7.22;4.00;;;13.40;99.90;;;;;;5013468;28;20415;-87
2021/08/18 06:44:33;;;;;;;7.05;3.40;;;13.50;99.90;;;;;;5032392;28;20174;-87
2021/08/18 06:46:59;;;;;;;6.13;3.83;;;13.50;99.90;;;;;;5014671;28;20028;-85
2021/08/18 06:49:25;;;;;;;7.03;3.42;;;13.50;99.90;;;;;;5013906;28;20072;-85
2021/08/18 06:51:51;;;;;;;7.22;3.72;;;13.50;99.90;;;;;;5012314;28;20036;-86
2021/08/18 06:54:17;;;;;;;6.45;3.67;;;13.50;99.90;;;;;;5011980;28;20026;-86
2021/08/18 06:56:43;;;;;;;10.25;3.97;;;13.50;99.90;;;;;;5012310;28;20503;-88
2021/08/18 06:59:09;;;;;;;5.78;3.22;;;13.60;99.90;;;;;;5011845;28;20047;-87
2021/08/18 07:01:34;;;;;;;8.00;4.00;;;13.60;99.90;;;;;;5013267;28;20071;-89
2021/08/18 07:04:02;;;;;;;7.63;4.30;;;13.60;99.90;;;;;;5013429;28;20025;-86
2021/08/18 07:06:28;;;;;;;5.95;2.90;;;13.60;99.90;;;;;;5026238;28;20458;-88
2021/08/18 07:08:53;;;;;;;7.88;4.07;;;13.60;99.90;;;;;;5009134;28;20060;-88
2021/08/18 07:11:19;;;;;;;5.00;3.30;;;13.70;99.90;;;;;;5022751;28;20029;-88
2021/08/18 07:13:45;;;;;;;5.90;2.83;;;13.70;99.90;;;;;;5012509;28;20037;-88
2021/08/18 07:16:11;;;;;;;7.78;3.20;;;13.70;99.90;;;;;;4992717;28;20037;-87
2021/08/18 07:18:36;;;;;;;7.43;3.42;;;13.70;99.90;;;;;;5009966;28;20037;-86
2021/08/18 07:21:02;;;;;;;6.55;3.22;;;13.80;99.90;;;;;;5026973;28;20091;-88
2021/08/18 07:23:28;;;;;;;5.53;2.63;;;13.80;99.90;;;;;;5008405;28;20159;-87
2021/08/18 07:25:54;;;;;;;6.78;3.25;;;13.80;99.90;;;;;;5010064;28;20029;-87
2021/08/18 07:28:19;;;;;;;5.15;2.83;;;13.80;99.90;;;;;;5015315;28;20550;-87
2021/08/18 07:30:45;;;;;;;5.55;3.00;;;13.90;99.90;;;;;;5010974;28;20116;-87
2021/08/18 07:33:11;;;;;;;5.85;3.03;;;13.90;99.90;;;;;;5025992;28;20021;-88
2021/08/18 07:35:37;;;;;;;4.30;3.10;;;13.90;99.90;;;;;;5015425;28;20053;-88
2021/08/18 07:38:02;;;;;;;3.95;2.30;;;13.90;99.90;;;;;;5026161;28;20025;-89
2021/08/18 07:40:28;;;;;;;5.93;3.17;;;13.90;99.90;;;;;;5008773;28;20075;-88
2021/08/18 07:42:56;;;;;;;5.40;3.00;;;14.00;99.90;;;;;;5009018;28;20026;-86
2021/08/18 07:45:22;;;;;;;6.20;2.63;;;14.00;99.90;;;;;;4994006;28;20032;-88
2021/08/18 07:47:48;;;;;;;4.47;2.58;;;14.00;99.90;;;;;;5024936;28;20025;-88
2021/08/18 07:50:14;;;;;;;4.05;2.90;;;14.00;99.90;;;;;;5021930;28;20127;-87
2021/08/18 07:52:40;;;;;;;4.28;2.70;;;14.00;99.90;;;;;;5011205;28;20061;-88
2021/08/18 07:55:07;;;;;;;3.88;2.50;;;14.10;99.90;;;;;;5019231;28;20123;-88
2021/08/18 07:57:34;;;;;;;4.70;2.95;;;14.00;99.90;;;;;;5012705;28;20020;-88
2021/08/18 08:00:05;;;;;;;6.30;2.72;;;14.10;99.90;;;;;;5011837;28;20021;-86
2021/08/18 08:02:37;;;;;;;4.03;2.83;;;14.10;99.90;;;;;;5013941;28;20056;-89
2021/08/18 08:05:07;;;;;;;4.55;2.33;;;14.10;99.90;;;;;;4996455;28;20471;-88
2021/08/18 08:07:33;;;;;;;3.92;2.35;;;14.10;99.90;;;;;;5017409;28;20032;-86
2021/08/18 08:09:59;;;;;;;4.43;2.30;;;14.20;99.90;;;;;;5017325;28;20401;-87
2021/08/18 08:12:24;;;;;;;4.63;2.42;;;14.30;99.90;;;;;;4983980;28;20021;-88
2021/08/18 08:14:50;;;;;;;6.57;3.42;;;14.30;99.90;;;;;;5012669;28;20161;-88
2021/08/18 08:17:16;;;;;;;4.90;2.97;;;14.40;99.90;;;;;;5026776;28;20025;-86
2021/08/18 08:19:41;;;;;;;3.53;2.40;;;14.40;99.90;;;;;;5017262;28;20630;-88
2021/08/18 08:22:07;;;;;;;5.68;2.55;;;14.40;99.90;;;;;;5001670;28;20037;-87
2021/08/18 08:24:33;;;;;;;5.88;2.83;;;14.40;99.90;;;;;;5030705;28;20025;-86
2021/08/18 08:26:58;;;;;;;4.35;2.47;;;14.50;99.90;;;;;;5000131;28;20617;-88
2021/08/18 08:29:24;;;;;;;3.83;2.38;;;14.60;99.90;;;;;;5013736;28;20033;-88
2021/08/18 08:31:50;;;;;;;4.32;2.25;;;14.70;99.90;;;;;;5016806;28;20030;-86
2021/08/18 08:34:17;;;;;;;4.40;2.40;;;14.70;99.90;;;;;;5001936;28;20546;-88
2021/08/18 08:36:43;;;;;;;4.22;2.58;;;14.90;99.90;;;;;;5020352;28;20428;-87
2021/08/18 08:39:10;;;;;;;3.78;2.35;;;15.00;99.90;;;;;;5011255;28;20518;-87
2021/08/18 08:41:36;;;;;;;4.30;2.67;;;15.20;99.90;;;;;;5001635;28;20029;-87
2021/08/18 08:44:02;;;;;;;3.33;1.90;;;15.30;99.90;;;;;;5012521;28;20789;-87
2021/08/18 08:46:27;;;;;;;2.90;1.90;;;15.40;99.90;;;;;;5016399;28;20438;-88
2021/08/18 08:48:54;;;;;;;3.13;2.13;;;15.50;99.90;;;;;;5013124;28;20040;-85
2021/08/18 08:51:20;;;;;;;2.80;1.88;;;15.50;99.90;;;;;;4980326;28;20032;-85
2021/08/18 08:53:46;;;;;;;3.90;2.20;;;15.60;99.90;;;;;;4991452;28;20033;-86
2021/08/18 08:56:12;;;;;;;3.47;2.00;;;15.60;99.90;;;;;;5046985;28;20017;-86
2021/08/18 08:58:37;;;;;;;2.25;1.85;;;15.60;99.90;;;;;;4996672;28;20056;-86
2021/08/18 09:01:03;;;;;;;2.13;1.73;;;15.70;99.90;;;;;;4998640;28;20029;-84
2021/08/18 09:03:29;;;;;;;2.75;1.88;;;15.70;99.90;;;;;;5014032;28;20435;-88
2021/08/18 09:06:04;;;;;;;2.42;1.60;;;15.70;99.90;;;;;;5012391;28;20056;-89
2021/08/18 09:08:31;;;;;;;2.90;1.55;;;15.70;99.90;;;;;;5004808;28;20123;-85
2021/08/18 09:11:23;;;;;;;3.53;1.80;;;15.70;99.90;;;;;;5011297;28;20466;-86
2021/08/18 09:13:52;;;;;;;2.60;1.92;;;15.70;99.90;;;;;;5009010;28;20384;-85
2021/08/18 09:16:29;;;;;;;2.80;1.58;;;15.70;99.90;;;;;;5031535;28;20036;-88
2021/08/18 09:18:55;;;;;;;2.30;1.40;;;15.80;99.90;;;;;;5014034;28;20159;-88
2021/08/18 09:21:28;;;;;;;2.53;1.85;;;15.90;99.90;;;;;;5014558;28;20053;-87
2021/08/18 09:24:15;;;;;;;3.92;2.78;;;15.80;99.90;;;;;;4998046;28;20037;-86
2021/08/18 09:26:48;;;;;;;3.63;2.47;;;15.80;99.90;;;;;;5026151;28;20380;-86
2021/08/18 09:29:31;;;;;;;3.03;2.13;;;15.80;99.90;;;;;;5010970;28;20124;-85
2021/08/18 09:32:19;;;;;;;4.30;2.58;;;15.70;99.90;;;;;;5007370;28;20052;-86
2021/08/18 09:35:17;;;;;;;5.53;2.40;;;15.60;99.90;;;;;;5044255;28;20020;-85
2021/08/18 09:38:16;;;;;;;3.25;2.13;;;15.60;99.90;;;;;;4994240;28;20577;-87
2021/08/18 09:40:45;;;;;;;2.88;2.28;;;15.50;99.90;;;;;;4970150;28;20072;-85
2021/08/18 09:43:16;;;;;;;2.70;2.20;;;15.50;99.90;;;;;;5023708;28;20049;-86
2021/08/18 09:45:57;;;;;;;3.70;2.58;;;15.50;99.90;;;;;;5023446;28;20030;-85
2021/08/18 09:48:25;;;;;;;3.72;2.78;;;15.50;99.90;;;;;;5010494;28;20032;-84
2021/08/18 09:50:55;;;;;;;3.72;2.58;;;15.50;99.90;;;;;;5012828;28;20058;-86
2021/08/18 09:53:40;;;;;;;3.35;2.53;;;15.50;99.90;;;;;;5008447;28;20029;-86
2021/08/18 09:56:10;;;;;;;4.05;2.47;;;15.60;99.90;;;;;;5029181;28;20021;-85
2021/08/18 09:58:47;;;;;;;3.42;2.40;;;15.70;99.90;;;;;;5007357;28;20152;-86
2021/08/18 10:01:15;;;;;;;3.58;2.17;;;15.80;99.90;;;;;;5041313;28;20021;-85
2021/08/18 10:03:54;;;;;;;3.05;2.13;;;15.80;99.90;;;;;;5011452;28;20063;-84
2021/08/18 10:06:20;;;;;;;2.33;1.77;;;15.80;99.90;;;;;;5021755;28;20104;-85
2021/08/18 10:08:51;;;;;;;3.10;2.28;;;15.80;99.90;;;;;;5011547;28;20037;-85
2021/08/18 10:11:25;;;;;;;3.17;2.22;;;15.80;99.90;;;;;;5005437;28;20049;-85
2021/08/18 10:13:52;;;;;;;3.38;2.28;;;15.90;99.90;;;;;;5009809;28;20026;-86
2021/08/18 10:16:18;;;;;;;3.70;2.10;;;16.00;99.90;;;;;;5009435;28;20518;-85
2021/08/18 10:18:47;;;;;;;2.22;1.60;;;16.00;99.90;;;;;;5015021;28;20029;-84
2021/08/18 10:21:22;;;;;;;3.20;2.15;;;16.10;99.90;;;;;;5010657;28;20095;-86
2021/08/18 10:23:58;;;;;;;3.90;2.47;;;16.20;99.90;;;;;;5025643;28;20067;-87
2021/08/18 10:26:36;;;;;;;2.80;2.13;;;16.20;99.90;;;;;;5026616;28;20041;-87
2021/08/18 10:29:17;;;;;;;4.53;2.25;;;16.40;99.90;;;;;;5022424;28;20025;-84
2021/08/18 10:31:42;;;;;;;2.47;2.17;;;16.50;99.90;;;;;;5017346;28;20108;-84
2021/08/18 10:34:23;;;;;;;2.47;2.20;;;16.70;99.90;;;;;;5020686;28;20121;-84
2021/08/18 10:36:58;;;;;;;3.13;2.00;;;16.90;99.90;;;;;;5011254;28;20500;-85
2021/08/18 10:39:27;;;;;;;2.53;1.87;;;17.10;99.90;;;;;;5010066;28;20067;-85
2021/08/18 10:42:03;;;;;;;3.80;1.98;;;17.20;99.90;;;;;;5024360;28;20026;-85
2021/08/18 10:44:51;;;;;;;2.50;1.85;;;17.20;99.90;;;;;;5020533;28;20487;-86
2021/08/18 10:47:40;;;;;;;3.08;2.33;;;17.20;99.90;;;;;;5013834;28;20071;-88
2021/08/18 10:50:17;;;;;;;4.30;1.92;;;17.00;99.90;;;;;;5007512;28;20079;-88
2021/08/18 10:52:43;;;;;;;1.75;1.52;;;17.00;99.90;;;;;;5012497;28;20039;-86
2021/08/18 10:55:22;;;;;;;2.28;1.75;;;16.90;99.90;;;;;;5025001;28;20120;-87
2021/08/18 10:57:52;;;;;;;3.00;2.45;;;16.80;99.90;;;;;;5026167;28;20063;-87
2021/08/18 11:00:41;;;;;;;2.28;2.08;;;16.90;99.90;;;;;;5006676;28;20154;-88
2021/08/18 11:03:16;;;;;;;2.30;2.03;;;16.80;99.90;;;;;;5009907;28;20699;-88
2021/08/18 11:05:47;;;;;;;3.00;1.90;;;16.80;99.90;;;;;;5014356;28;20482;-88
2021/08/18 11:08:27;;;;;;;1.90;1.70;;;16.70;99.90;;;;;;5023666;28;20049;-89
2021/08/18 11:10:55;;;;;;;1.50;1.33;;;16.60;99.90;;;;;;5012941;28;20518;-89
2021/08/18 11:13:52;;;;;;;1.60;1.50;;;16.50;99.90;;;;;;5011414;28;20044;-90
2021/08/18 11:16:18;;;;;;;1.05;0.95;;;16.40;99.90;;;;;;4977867;28;20479;-89
2021/08/18 11:18:49;;;;;;;2.45;0.73;;;16.40;99.90;;;;;;5006445;28;20036;-90
2021/08/18 11:21:18;;;;;;;0.70;0.70;;;16.40;99.90;;;;;;5012729;28;20068;-90
2021/08/18 11:23:51;;;;;;;0.60;0.52;;;16.30;99.90;;;;;;5017547;28;20112;-89
2021/08/18 11:26:19;;;;;;;0.30;0.30;;;16.20;99.90;;;;;;5009603;28;20114;-88
2021/08/18 11:28:52;;;;;;;1.25;0.50;;;16.20;99.90;;;;;;5002232;28;20033;-88
2021/08/18 11:31:27;;;;;;;0.40;0.40;;;16.20;99.90;;;;;;5013959;28;20029;-90
2021/08/18 11:33:53;;;;;;;0.80;0.50;;;16.20;99.90;;;;;;5010587;28;20491;-92
2021/08/18 11:36:22;;;;;;;1.38;0.60;;;16.30;99.90;;;;;;5010380;28;20033;-88
2021/08/18 11:39:02;;;;;;;0.57;0.57;;;16.40;99.90;;;;;;5013777;28;20021;-90
2021/08/18 11:41:46;;;;;;;0.50;0.50;;;16.40;99.90;;;;;;5007179;28;20494;-90
2021/08/18 11:44:27;;;;;;;0.50;0.50;;;16.50;99.90;;;;;;5029450;28;20028;-89
2021/08/18 11:46:54;;;;;;;0.65;0.65;;;16.60;99.90;;;;;;5014330;28;20029;-88
2021/08/18 11:49:24;;;;;;;0.88;0.50;;;16.80;99.90;;;;;;4992525;28;20064;-91
2021/08/18 11:51:50;;;;;;;0.60;0.50;;;16.90;99.90;;;;;;5009669;28;20086;-89
2021/08/18 11:54:20;;;;;;;0.43;0.40;;;17.10;99.90;;;;;;5012346;28;20030;-89
2021/08/18 11:56:56;;;;;;;0.52;0.45;;;17.20;99.90;;;;;;5023542;28;20021;-88
2021/08/18 11:59:22;;;;;;;0.93;0.70;;;17.30;99.90;;;;;;5026596;28;20605;-89
2021/08/18 12:01:50;;;;;;;0.88;0.57;;;17.60;99.90;;;;;;5010172;28;20044;-88
2021/08/18 12:04:20;;;;;;;0.47;0.43;;;17.80;99.90;;;;;;5012276;28;20037;-88
2021/08/18 12:07:03;;;;;;;0.60;0.60;;;18.00;99.90;;;;;;5008808;28;20445;-89
2021/08/18 12:09:28;;;;;;;1.85;0.60;;;18.10;99.90;;;;;;5007017;28;20025;-88
2021/08/18 12:12:09;;;;;;;0.68;0.68;;;18.20;99.90;;;;;;5013119;28;20749;-88
2021/08/18 12:14:54;;;;;;;0.63;0.63;;;18.10;99.90;;;;;;5024608;28;20052;-88
2021/08/18 12:17:20;;;;;;;0.57;0.57;;;18.10;99.90;;;;;;5016735;28;20040;-87
2021/08/18 12:19:48;;;;;;;0.40;0.40;;;18.00;99.90;;;;;;5026038;28;20025;-88
2021/08/18 12:22:24;;;;;;;0.75;0.75;;;17.90;99.90;;;;;;5005916;28;20036;-87
2021/08/18 12:24:53;;;;;;;0.85;0.70;;;17.90;99.90;;;;;;5007105;28;20035;-89
2021/08/18 12:27:24;;;;;;;0.65;0.65;;;17.90;99.90;;;;;;5024474;28;20039;-87
2021/08/18 12:30:03;;;;;;;0.68;0.68;;;17.90;99.90;;;;;;5012762;28;20037;-87
2021/08/18 12:32:29;;;;;;;0.98;0.82;;;18.00;99.90;;;;;;5027969;28;20047;-88
2021/08/18 12:35:00;;;;;;;0.82;0.82;;;18.10;99.90;;;;;;5018573;28;20025;-87
2021/08/18 12:37:31;;;;;;;0.70;0.70;;;18.30;99.90;;;;;;4988254;28;20029;-89
2021/08/18 12:40:03;;;;;;;0.60;0.60;;;18.40;99.90;;;;;;5027078;28;20120;-87
2021/08/18 12:42:31;;;;;;;0.50;0.50;;;18.50;99.90;;;;;;5026678;28;20029;-89
2021/08/18 12:45:05;;;;;;;1.70;0.90;;;18.50;99.90;;;;;;5012818;28;20036;-87
2021/08/18 12:47:33;;;;;;;0.75;0.75;;;18.60;99.90;;;;;;5017811;28;20025;-87
2021/08/18 12:49:58;;;;;;;1.05;0.95;;;18.60;99.90;;;;;;5031255;28;20029;-87